Time;durP1;ratioP1;P1;durP2;ratioP2;P2;SDS_P1;SDS_P2;PMS_P1;PMS_P2;Temp;Humidity;BMP_temperature;BMP_pressure;BME280_temperature;BME280_humidity;BME280_pressure;Samples;Min_cycle;Max_cycle;Signal;HPM_P1;HPM_P2
2021/07/09 06:27:55;;;;;;;21.60;14.70;;;13.30;99.90;;;;;;6140171;23;20406;-96
2021/07/09 14:34:23;;;;;;;2.65;0.80;;;17.30;99.90;;;;;;6115280;23;20366;31
2021/07/09 15:06:38;;;;;;;3.33;1.23;;;15.50;99.90;;;;;;6128593;23;20389;-91
2021/07/09 15:09:09;;;;;;;1.83;1.08;;;15.80;99.90;;;;;;6162144;23;20373;-92
2021/07/09 15:11:39;;;;;;;1.33;0.90;;;16.80;99.90;;;;;;6170383;23;20390;-94
2021/07/09 15:14:27;;;;;;;1.05;0.90;;;16.90;99.90;;;;;;6144553;23;20393;-94
2021/07/09 15:17:02;;;;;;;2.15;1.00;;;16.50;99.90;;;;;;6171664;23;21237;-95
2021/07/09 15:19:31;;;;;;;1.85;0.90;;;16.30;99.90;;;;;;6185962;23;20409;-95
2021/07/09 15:22:11;;;;;;;1.75;1.10;;;16.20;99.90;;;;;;6177741;23;20396;-95
2021/07/09 15:24:49;;;;;;;2.70;1.00;;;16.10;99.90;;;;;;6196639;23;20376;-95
2021/07/09 15:27:16;;;;;;;2.60;1.23;;;16.20;99.90;;;;;;6204984;23;20406;-94
2021/07/09 15:29:55;;;;;;;1.75;1.02;;;16.40;99.90;;;;;;6199264;23;20885;-95
2021/07/09 15:32:31;;;;;;;1.90;1.00;;;16.70;99.90;;;;;;6198203;23;20794;-96
2021/07/09 15:35:01;;;;;;;3.05;0.95;;;16.70;99.90;;;;;;6174177;23;20452;-96
2021/07/09 15:37:45;;;;;;;1.20;0.68;;;16.80;99.90;;;;;;6186999;22;20394;-95
2021/07/09 15:40:21;;;;;;;1.60;0.82;;;17.00;99.90;;;;;;6178898;23;20385;-96
2021/07/09 15:42:58;;;;;;;1.20;0.80;;;16.60;99.90;;;;;;6196898;23;20451;-96
2021/07/09 15:45:25;;;;;;;2.00;0.93;;;16.30;99.90;;;;;;6204671;23;20392;-95
2021/07/09 15:47:56;;;;;;;2.13;0.80;;;16.20;99.90;;;;;;6195999;23;20387;-95
2021/07/09 15:50:23;;;;;;;1.42;1.10;;;16.00;99.90;;;;;;6198622;23;20411;-93
2021/07/09 15:53:03;;;;;;;1.73;1.00;;;15.90;99.90;;;;;;6200053;23;20372;-96
2021/07/09 15:55:33;;;;;;;3.90;1.00;;;15.80;99.90;;;;;;6195611;23;20395;-95
2021/07/09 15:58:02;;;;;;;5.10;1.05;;;15.70;99.90;;;;;;6204315;23;20418;-96
2021/07/09 16:00:49;;;;;;;1.13;0.93;;;15.60;99.90;;;;;;6195897;23;20396;-93
2021/07/09 16:03:18;;;;;;;1.30;1.10;;;15.70;99.90;;;;;;6194254;23;20483;-96
2021/07/09 16:06:14;;;;;;;3.35;1.10;;;15.80;99.90;;;;;;6198820;23;20373;-95
2021/07/09 16:08:41;;;;;;;3.20;1.00;;;16.10;99.90;;;;;;6193064;23;20400;-94
2021/07/09 16:19:48;;;;;;;1.30;0.98;;;15.90;99.90;;;;;;6080883;23;20391;-95
2021/07/09 16:22:28;;;;;;;1.88;0.80;;;16.50;99.90;;;;;;6132981;23;20405;-96
2021/07/09 16:26:21;;;;;;;;;;;;;;;;;;;;;
2021/07/09 16:29:08;;;;;;;1.45;0.93;;;16.20;99.90;;;;;;6028766;23;20397;-91
2021/07/09 16:41:27;;;;;;;1.80;1.20;;;15.90;99.90;;;;;;6116897;23;20399;31
2021/07/09 17:52:20;;;;;;;2.78;2.20;;;14.60;99.90;;;;;;6187099;23;20393;-96
2021/07/09 18:33:44;;;;;;;2.50;2.30;;;15.20;99.90;;;;;;6209261;23;20396;-95
2021/07/09 18:54:59;;;;;;;4.47;3.63;;;14.10;99.90;;;;;;6121197;23;21679;-93
2021/07/09 18:57:28;;;;;;;4.30;3.80;;;13.90;99.90;;;;;;6126392;23;20713;-96
2021/07/09 18:59:56;;;;;;;4.85;4.30;;;13.90;99.90;;;;;;6183083;23;20406;-95
2021/07/09 19:02:23;;;;;;;6.70;4.60;;;13.80;99.90;;;;;;6162537;22;20397;-95
2021/07/09 19:04:59;;;;;;;5.57;4.28;;;13.80;99.90;;;;;;6174675;23;20433;-95
2021/07/09 19:07:28;;;;;;;4.93;4.53;;;13.70;99.90;;;;;;6165103;23;20429;-96
2021/07/09 19:09:56;;;;;;;5.50;5.00;;;13.70;99.90;;;;;;6164218;23;20453;-96
2021/07/09 19:12:23;;;;;;;6.67;4.90;;;13.60;99.90;;;;;;6162769;23;20385;-96
2021/07/09 19:14:51;;;;;;;6.93;4.83;;;13.60;99.90;;;;;;6167189;23;20401;-95
2021/07/09 19:17:18;;;;;;;6.68;5.30;;;13.60;99.90;;;;;;6164107;23;20397;-95
2021/07/09 19:19:45;;;;;;;7.88;5.30;;;13.50;99.90;;;;;;6165755;23;20393;-94
2021/07/09 19:22:12;;;;;;;6.88;5.57;;;13.50;99.90;;;;;;6166434;23;20396;-96
